Holgate, Ohio
Current Conditions -  °F | °C
As of 1:53 PM on Friday 21 Nov 2014 (Local Time) from KDFI Reporting Station
Clear Clear  
Wind Chill: 18°   Ceiling: Unl
Heat Index: 27°   Visibility: 10mi
Dew Point: 14°   Wind: 9mph
Humidity: 58%   Direction: 190°S
Pressure: 30.48"   Gusts: NA
Location:  41.25°N, 84.13°W
Report Text: KDFI 211853Z AUTO 19008KT 10SM CLR M03/M10 A3048 RMK AO2 SLP332 T10281100
Loading
Personal Weather Stations






























Interactive Weather Map New forecast layout! Learn more

10-Day Weather Forecast

Advertisements
Track Severe Weather on mobile